Juniyah, Lebanon
Current Conditions -  °F | °C
As of 8:00 PM on Saturday 25 Oct 2014 (Local Time) from OLBA Reporting Station
Few Clouds Few Clouds  
Wind Chill: 75°   Ceiling: Unl
Heat Index: 75°   Visibility: 5mi
Dew Point: 61°   Wind: 5mph
Humidity: 61%   Direction: 110°ESE
Pressure: 30"   Gusts: NA
Location:  33.97°N, 35.63°E
Report Text: OLBA 251700Z 11004KT 8000 FEW026 24/16 Q1016
Loading
Personal Weather Stations






























Interactive Weather Map
Tropical Storm Tracking
New forecast layout! Learn more

10-Day Weather Forecast

Advertisements
Track Severe Weather on mobile